createdAt,value
2016-10-15T00:01:33.168Z,1007.43
2016-10-15T00:06:33.120Z,1007.26
2016-10-15T00:11:33.068Z,1007.17
2016-10-15T00:16:33.015Z,1007.26
2016-10-15T00:21:32.965Z,1007.31
2016-10-15T00:26:32.914Z,1007.48
2016-10-15T00:31:32.864Z,1007.56
2016-10-15T00:36:32.814Z,1007.57
2016-10-15T00:41:32.763Z,1007.52
2016-10-15T00:46:32.713Z,1007.52
2016-10-15T00:51:32.663Z,1007.49
2016-10-15T00:56:32.613Z,1007.51
2016-10-15T01:01:32.562Z,1007.57
2016-10-15T01:06:32.509Z,1007.52
2016-10-15T01:11:32.458Z,1007.52
2016-10-15T01:16:32.407Z,1007.54
2016-10-15T01:21:32.354Z,1007.56
2016-10-15T01:26:32.301Z,1007.51
2016-10-15T01:31:32.267Z,1007.5
2016-10-15T01:36:32.198Z,1007.4
2016-10-15T01:41:32.146Z,1007.33
2016-10-15T01:46:32.097Z,1007.34
2016-10-15T01:51:32.043Z,1007.42
2016-10-15T01:56:31.989Z,1007.44
2016-10-15T02:01:31.935Z,1007.38
2016-10-15T02:06:31.889Z,1007.3
2016-10-15T02:11:31.831Z,1007.2
2016-10-15T02:16:31.785Z,1007.15
2016-10-15T02:21:31.727Z,1007.13
2016-10-15T02:26:31.673Z,1007.19
2016-10-15T02:31:31.619Z,1007.16
2016-10-15T02:36:31.569Z,1006.96
2016-10-15T02:41:31.515Z,1006.96
2016-10-15T02:46:31.465Z,1007.05
2016-10-15T02:51:31.411Z,1007.01
2016-10-15T02:56:31.357Z,1006.91
2016-10-15T03:01:31.307Z,1006.68
2016-10-15T03:06:31.256Z,1006.7
2016-10-15T03:11:31.200Z,1006.7
2016-10-15T03:16:31.152Z,1006.67
2016-10-15T03:21:31.096Z,1006.68
2016-10-15T03:26:31.043Z,1006.74
2016-10-15T03:31:30.991Z,1006.78
2016-10-15T03:36:30.945Z,1006.83
2016-10-15T03:41:30.885Z,1006.86
2016-10-15T03:46:30.832Z,1006.92
2016-10-15T03:51:30.779Z,1006.94
2016-10-15T03:56:30.726Z,1006.86
2016-10-15T04:01:30.674Z,1006.85
2016-10-15T04:06:30.624Z,1007.02
2016-10-15T04:11:30.568Z,1007.03
2016-10-15T04:16:30.514Z,1007.05
2016-10-15T04:21:30.462Z,1006.99
2016-10-15T04:26:30.410Z,1006.96
2016-10-15T04:31:30.357Z,1006.98
2016-10-15T04:36:30.303Z,1007.05
2016-10-15T04:41:30.253Z,1007.06
2016-10-15T04:46:30.197Z,1007.07
2016-10-15T04:51:30.143Z,1007.09
2016-10-15T04:56:30.093Z,1007.11
2016-10-15T05:01:30.037Z,1007.19
2016-10-15T05:06:29.986Z,1007.2
2016-10-15T05:11:29.930Z,1007.17
2016-10-15T05:16:29.876Z,1007.29
2016-10-15T05:21:29.824Z,1007.28
2016-10-15T05:26:29.770Z,1007.28
2016-10-15T05:31:29.725Z,1007.38
2016-10-15T05:36:29.666Z,1007.41
2016-10-15T05:41:29.609Z,1007.42
2016-10-15T05:46:29.553Z,1007.47
2016-10-15T05:51:29.499Z,1007.46
2016-10-15T05:56:29.443Z,1007.49
2016-10-15T06:01:29.388Z,1007.54
2016-10-15T06:06:29.337Z,1007.51
2016-10-15T06:11:29.281Z,1007.68
2016-10-15T06:16:29.225Z,1007.73
2016-10-15T06:21:29.171Z,1007.77
2016-10-15T06:26:29.115Z,1007.74
2016-10-15T06:31:29.062Z,1007.75
2016-10-15T06:36:29.004Z,1007.77
2016-10-15T06:41:28.947Z,1007.85
2016-10-15T06:46:28.891Z,1007.85
2016-10-15T06:51:28.837Z,1007.89
2016-10-15T06:56:28.781Z,1007.91
2016-10-15T07:01:28.727Z,1008
2016-10-15T07:06:28.683Z,1008.05
2016-10-15T07:11:28.619Z,1008.14
2016-10-15T07:16:28.567Z,1008.22
2016-10-15T07:21:28.513Z,1008.32
2016-10-15T07:26:28.457Z,1008.4
2016-10-15T07:31:28.403Z,1008.51
2016-10-15T07:36:28.350Z,1008.55
2016-10-15T07:41:28.295Z,1008.6
2016-10-15T07:46:28.243Z,1008.74
2016-10-15T07:51:28.187Z,1008.78
2016-10-15T07:56:28.137Z,1008.85
2016-10-15T08:01:28.079Z,1009
2016-10-15T08:06:28.025Z,1009.08
2016-10-15T08:11:27.973Z,1009.15
2016-10-15T08:16:27.921Z,1009.24
2016-10-15T08:21:27.869Z,1009.35
2016-10-15T08:26:27.815Z,1009.44
2016-10-15T08:31:27.761Z,1009.5
2016-10-15T08:36:27.709Z,1009.6
2016-10-15T08:41:27.654Z,1009.61
2016-10-15T08:46:27.604Z,1009.72
2016-10-15T08:51:27.548Z,1009.85
2016-10-15T08:56:27.496Z,1009.92
2016-10-15T09:01:27.444Z,1010.02
2016-10-15T09:06:27.393Z,1010.08
2016-10-15T09:11:27.340Z,1010.2
2016-10-15T09:16:27.288Z,1010.29
2016-10-15T09:21:27.238Z,1010.32
2016-10-15T09:26:27.185Z,1010.39
2016-10-15T09:31:27.132Z,1010.45
2016-10-15T09:36:27.082Z,1010.47
2016-10-15T09:41:27.032Z,1010.59
2016-10-15T09:46:26.976Z,1010.67
2016-10-15T09:51:26.922Z,1010.77
2016-10-15T09:56:26.880Z,1010.81
2016-10-15T10:01:26.819Z,1010.79
2016-10-15T10:06:26.781Z,1010.81
2016-10-15T10:11:26.718Z,1010.84
2016-10-15T10:16:26.665Z,1010.94
2016-10-15T10:21:26.611Z,1011.08
2016-10-15T10:26:26.558Z,1011.17
2016-10-15T10:31:26.513Z,1011.26
2016-10-15T10:36:26.452Z,1011.34
2016-10-15T10:41:26.403Z,1011.48
2016-10-15T10:46:26.355Z,1011.59
2016-10-15T10:51:26.301Z,1011.69
2016-10-15T10:56:26.251Z,1011.7
2016-10-15T11:01:26.202Z,1011.8
2016-10-15T11:06:26.148Z,1011.85
2016-10-15T11:11:26.094Z,1011.93
2016-10-15T11:16:26.040Z,1011.95
2016-10-15T11:21:25.989Z,1012.02
2016-10-15T11:26:25.933Z,1012.09
2016-10-15T11:31:25.881Z,1012.16
2016-10-15T11:36:25.827Z,1012.23
2016-10-15T11:41:25.774Z,1012.3
2016-10-15T11:46:25.722Z,1012.34
2016-10-15T11:51:25.670Z,1012.45
2016-10-15T11:56:25.618Z,1012.5
2016-10-15T12:01:25.566Z,1012.58
2016-10-15T12:06:25.517Z,1012.63
2016-10-15T12:11:25.465Z,1012.78
2016-10-15T12:16:25.414Z,1012.86
2016-10-15T12:21:25.361Z,1012.92
2016-10-15T12:26:25.309Z,1013.01
2016-10-15T12:31:25.259Z,1013.05
2016-10-15T12:36:25.213Z,1013.22
2016-10-15T12:41:25.158Z,1013.28
2016-10-15T12:46:25.105Z,1013.35
2016-10-15T12:51:25.058Z,1013.44
2016-10-15T12:56:25.003Z,1013.54
2016-10-15T13:01:24.952Z,1013.61
2016-10-15T13:06:24.902Z,1013.66
2016-10-15T13:11:24.849Z,1013.68
2016-10-15T13:16:24.797Z,1013.78
2016-10-15T13:21:24.747Z,1013.86
2016-10-15T13:26:24.699Z,1013.97
2016-10-15T13:31:24.650Z,1014.1
2016-10-15T13:36:24.596Z,1014.22
2016-10-15T13:41:24.546Z,1014.2
2016-10-15T13:46:24.495Z,1014.24
2016-10-15T13:51:24.442Z,1014.28
2016-10-15T13:56:24.390Z,1014.35
2016-10-15T14:01:24.341Z,1014.39
2016-10-15T14:06:24.318Z,1014.54
2016-10-15T14:11:24.247Z,1014.6
2016-10-15T14:16:24.191Z,1014.61
2016-10-15T14:21:24.143Z,1014.62
2016-10-15T14:26:24.092Z,1014.7
2016-10-15T14:31:24.041Z,1014.75
2016-10-15T14:36:23.992Z,1014.81
2016-10-15T14:41:23.945Z,1014.87
2016-10-15T14:46:23.897Z,1014.94
2016-10-15T14:51:23.845Z,1014.99
2016-10-15T14:56:23.796Z,1015.05
2016-10-15T15:01:23.750Z,1015.15
2016-10-15T15:06:23.697Z,1015.23
2016-10-15T15:11:23.647Z,1015.31
2016-10-15T15:16:23.601Z,1015.37
2016-10-15T15:21:23.552Z,1015.41
2016-10-15T15:26:23.501Z,1015.46
2016-10-15T15:31:23.454Z,1015.55
2016-10-15T15:36:23.401Z,1015.57
2016-10-15T15:41:23.352Z,1015.62
2016-10-15T15:46:23.302Z,1015.64
2016-10-15T15:51:23.251Z,1015.62
2016-10-15T15:56:23.201Z,1015.68
2016-10-15T16:01:23.152Z,1015.8
2016-10-15T16:06:23.105Z,1015.91
2016-10-15T16:11:23.059Z,1016
2016-10-15T16:16:23.008Z,1016.09
2016-10-15T16:21:22.961Z,1016.17
2016-10-15T16:26:22.915Z,1016.21
2016-10-15T16:31:22.866Z,1016.3
2016-10-15T16:36:22.820Z,1016.31
2016-10-15T16:41:22.773Z,1016.35
2016-10-15T16:46:22.725Z,1016.4
2016-10-15T16:51:22.676Z,1016.48
2016-10-15T16:56:22.631Z,1016.5
2016-10-15T17:01:22.581Z,1016.58
2016-10-15T17:06:22.535Z,1016.67
2016-10-15T17:11:22.486Z,1016.72
2016-10-15T17:16:22.437Z,1016.75
2016-10-15T17:21:22.393Z,1016.82
2016-10-15T17:26:22.349Z,1016.93
2016-10-15T17:31:22.299Z,1016.92
2016-10-15T17:36:22.254Z,1017.01
2016-10-15T17:41:22.208Z,1017.06
2016-10-15T17:46:22.159Z,1017.08
2016-10-15T17:51:22.114Z,1017.15
2016-10-15T17:56:22.066Z,1017.22
2016-10-15T18:01:22.024Z,1017.25
2016-10-15T18:06:21.972Z,1017.27
2016-10-15T18:11:21.923Z,1017.34
2016-10-15T18:16:21.878Z,1017.39
2016-10-15T18:21:21.829Z,1017.43
2016-10-15T18:26:21.781Z,1017.47
2016-10-15T18:31:21.731Z,1017.45
2016-10-15T18:36:21.685Z,1017.49
2016-10-15T18:41:21.638Z,1017.45
2016-10-15T18:46:21.592Z,1017.46
2016-10-15T18:51:21.547Z,1017.51
2016-10-15T18:56:21.501Z,1017.59
2016-10-15T19:01:21.455Z,1017.7
2016-10-15T19:06:21.411Z,1017.87
2016-10-15T19:11:21.368Z,1017.88
2016-10-15T19:16:21.321Z,1017.96
2016-10-15T19:21:21.274Z,1018.03
2016-10-15T19:26:21.228Z,1018.08
2016-10-15T19:31:21.184Z,1018.12
2016-10-15T19:36:21.142Z,1018.14
2016-10-15T19:41:21.094Z,1018.22
2016-10-15T19:46:21.047Z,1018.24
2016-10-15T19:51:21.007Z,1018.29
2016-10-15T19:56:20.959Z,1018.37
2016-10-15T20:01:20.912Z,1018.37
2016-10-15T20:06:20.874Z,1018.43
2016-10-15T20:11:20.821Z,1018.5
2016-10-15T20:16:20.777Z,1018.54
2016-10-15T20:21:20.727Z,1018.62
2016-10-15T20:26:20.685Z,1018.71
2016-10-15T20:31:20.640Z,1018.76
2016-10-15T20:36:20.604Z,1018.8
2016-10-15T20:41:20.548Z,1018.83
2016-10-15T20:46:20.505Z,1018.82
2016-10-15T20:51:20.458Z,1018.92
2016-10-15T20:56:20.413Z,1018.91
2016-10-15T21:01:20.368Z,1018.89
2016-10-15T21:06:20.321Z,1018.83
2016-10-15T21:11:20.279Z,1018.88
2016-10-15T21:16:20.232Z,1019.04
2016-10-15T21:21:20.184Z,1019.14
2016-10-15T21:26:20.139Z,1019.11
2016-10-15T21:31:20.092Z,1019.15
2016-10-15T21:36:20.048Z,1019.14
2016-10-15T21:41:20.006Z,1019.21
2016-10-15T21:46:19.960Z,1019.21
2016-10-15T21:51:19.913Z,1019.28
2016-10-15T21:56:19.870Z,1019.25
2016-10-15T22:01:19.822Z,1019.28
2016-10-15T22:06:19.775Z,1019.29
2016-10-15T22:11:19.730Z,1019.4
2016-10-15T22:16:19.682Z,1019.42
2016-10-15T22:21:19.638Z,1019.33
2016-10-15T22:26:19.588Z,1019.31
2016-10-15T22:31:19.540Z,1019.29
2016-10-15T22:36:19.492Z,1019.31
2016-10-15T22:41:19.444Z,1019.26
2016-10-15T22:46:19.394Z,1019.35
2016-10-15T22:51:19.346Z,1019.34
2016-10-15T22:56:19.297Z,1019.39
2016-10-15T23:01:19.245Z,1019.39
2016-10-15T23:06:19.202Z,1019.42
2016-10-15T23:11:19.145Z,1019.49
2016-10-15T23:16:19.094Z,1019.54
2016-10-15T23:21:19.044Z,1019.61
2016-10-15T23:26:18.990Z,1019.67
2016-10-15T23:31:18.938Z,1019.67
2016-10-15T23:36:18.888Z,1019.73
2016-10-15T23:41:18.839Z,1019.78
2016-10-15T23:46:18.785Z,1019.8
2016-10-15T23:51:18.736Z,1019.9
2016-10-15T23:56:18.683Z,1019.86
